Terminal Aerodrome Forecast
Issued by NWS Sterling, VA

Current Version | Previous Version | Text Only | Print | Product List | Glossary On
Versions: 1 2 3 4 5 6 7 8 9 10 11 12 13 14 15 16 17 18 19 20 21 22 23 24 25 26 27
000
FTUS41 KLWX 260500
TAFIAD
TAF
KIAD 260537Z 2606/2712 36005KT P6SM -RA BKN090 OVC150
     FM260900 02008KT 3SM -RASN BKN060 OVC150
     FM261500 01009KT 1SM -SN OVC003
     FM261800 35011KT 1SM -SN SCT003 OVC008
     FM262200 33011KT P6SM OVC008
     FM270100 32007KT P6SM SCT008 BKN035
     FM270500 VRB03KT P6SM OVC045=

USA.gov is the U.S. government's official web portal to all federal, state and local government web resources and services.